Metar z połowy godziny Komunikat METAR ze strony awiacja.imgw.pl Metar G30 EPSN METAR EPSN 180830Z VRB02KT 8000 BKN014 01/00 Q1031 RMK 008 097 7/7=